Time;durP1;ratioP1;P1;durP2;ratioP2;P2;SDS_P1;SDS_P2;PMS_P1;PMS_P2;Temp;Humidity;BMP_temperature;BMP_pressure;BME280_temperature;BME280_humidity;BME280_pressure;Samples;Min_cycle;Max_cycle;Signal;HPM_P1;HPM_P2
2020/12/03 00:03:00;;;;;;;33.67;29.10;;;;;;;3.23;54.64;97476.66;8297467;28;20233;-85
2020/12/03 00:07:03;;;;;;;38.10;30.37;;;;;;;3.22;54.98;97470.69;8287989;28;20302;-85
2020/12/03 00:11:07;;;;;;;35.87;28.47;;;;;;;3.19;54.56;97462.25;8270181;28;20210;-85
2020/12/03 00:15:09;;;;;;;32.80;28.57;;;;;;;3.23;54.79;97469.81;8298424;28;20225;-85
2020/12/03 00:19:12;;;;;;;35.30;30.13;;;;;;;3.11;54.98;97458.13;8271123;28;20351;-85
2020/12/03 00:23:15;;;;;;;34.60;28.87;;;;;;;3.13;55.29;97453.81;8267046;28;20225;-85
2020/12/03 00:27:17;;;;;;;35.37;31.07;;;;;;;3.11;54.29;97453.00;8280136;28;20233;-85
2020/12/03 00:31:20;;;;;;;37.47;31.27;;;;;;;3.16;53.80;97447.81;8298296;28;20518;-85
2020/12/03 00:35:23;;;;;;;35.53;31.03;;;;;;;3.18;53.84;97447.75;8297842;28;20221;-85
2020/12/03 00:39:28;;;;;;;38.73;32.47;;;;;;;3.02;54.44;97437.03;8279351;28;20609;-85
2020/12/03 00:43:32;;;;;;;41.27;32.80;;;;;;;3.09;54.51;97451.38;8292969;28;20541;-85
2020/12/03 00:47:34;;;;;;;39.30;32.30;;;;;;;3.12;54.51;97441.91;8287213;28;20229;-85
2020/12/03 00:51:37;;;;;;;38.00;32.27;;;;;;;3.10;54.88;97437.69;8297777;28;20758;-86
2020/12/03 00:55:40;;;;;;;42.63;33.47;;;;;;;2.79;54.61;97455.44;8296356;28;20303;-85
2020/12/03 00:59:42;;;;;;;43.03;34.03;;;;;;;2.90;53.76;97451.78;8282374;28;20217;-84
2020/12/03 01:03:44;;;;;;;41.07;33.80;;;;;;;2.51;54.55;97435.56;8293214;28;20229;-85
2020/12/03 01:07:46;;;;;;;43.27;34.10;;;;;;;2.62;54.97;97443.84;8283001;28;20866;-85
2020/12/03 01:11:49;;;;;;;43.47;34.37;;;;;;;2.67;55.46;97419.03;8297862;28;20255;-85
2020/12/03 01:15:51;;;;;;;42.83;33.97;;;;;;;2.59;54.96;97425.16;8296352;28;20288;-85
2020/12/03 01:19:54;;;;;;;37.00;32.70;;;;;;;2.29;55.58;97422.41;8277445;28;20209;-85
2020/12/03 01:23:56;;;;;;;38.07;33.07;;;;;;;2.43;55.66;97406.78;8278026;28;20233;-85
2020/12/03 01:28:00;;;;;;;41.23;34.00;;;;;;;1.98;56.66;97423.00;8291560;28;20309;-85
2020/12/03 01:32:03;;;;;;;41.13;33.20;;;;;;;2.32;55.64;97407.84;8269175;28;20263;-85
2020/12/03 01:36:05;;;;;;;40.10;34.17;;;;;;;2.45;55.48;97405.84;8296315;28;20714;-85
2020/12/03 01:40:09;;;;;;;38.67;34.17;;;;;;;2.41;55.60;97403.41;8294548;28;20209;-84
2020/12/03 01:44:14;;;;;;;41.70;34.40;;;;;;;2.17;56.28;97386.84;8294045;28;20251;-85
2020/12/03 01:48:20;;;;;;;40.20;33.20;;;;;;;2.17;57.04;97382.59;8282347;28;20217;-85
2020/12/03 01:52:24;;;;;;;44.00;35.63;;;;;;;2.20;55.76;97391.91;8276076;28;20237;-85
2020/12/03 01:56:40;;;;;;;44.70;35.87;;;;;;;2.23;55.90;97376.50;8295556;28;20209;-85
2020/12/03 02:00:43;;;;;;;41.30;34.13;;;;;;;2.17;55.96;97374.09;8264773;28;20640;-85
2020/12/03 02:05:05;;;;;;;41.07;33.90;;;;;;;1.98;56.24;97366.81;8284613;28;20244;-84
2020/12/03 02:09:10;;;;;;;41.93;33.97;;;;;;;1.75;56.53;97370.63;8283267;28;20210;-85
2020/12/03 02:13:13;;;;;;;41.80;35.23;;;;;;;1.66;56.76;97370.81;8266417;28;20288;-84
2020/12/03 02:17:19;;;;;;;43.73;36.03;;;;;;;1.66;56.86;97365.69;8294121;28;20284;-85
2020/12/03 02:21:26;;;;;;;41.90;34.67;;;;;;;1.84;56.43;97338.13;8275999;28;20255;-84
2020/12/03 02:25:31;;;;;;;38.47;32.43;;;;;;;2.04;56.26;97325.81;8295134;28;20320;-85
2020/12/03 02:29:33;;;;;;;44.43;34.30;;;;;;;2.00;56.58;97316.53;8294516;28;20209;-85
2020/12/03 02:33:35;;;;;;;47.30;33.30;;;;;;;2.33;56.31;97332.03;8274006;28;20369;-84
2020/12/03 02:37:41;;;;;;;43.87;34.63;;;;;;;2.11;56.94;97324.81;8263144;28;20305;-84
2020/12/03 02:41:43;;;;;;;41.13;34.63;;;;;;;2.20;56.33;97307.59;8290041;28;20506;-84
2020/12/03 02:45:45;;;;;;;42.70;34.80;;;;;;;2.31;56.11;97321.00;8293624;28;20237;-84
2020/12/03 02:49:48;;;;;;;45.47;35.10;;;;;;;2.45;55.42;97320.69;8281371;28;20238;-85
2020/12/03 02:53:52;;;;;;;40.47;34.53;;;;;;;2.41;55.97;97316.50;8288668;28;20347;-85
2020/12/03 02:57:56;;;;;;;40.93;33.37;;;;;;;2.61;55.75;97311.81;8294281;28;20677;-85
2020/12/03 03:01:58;;;;;;;37.47;32.37;;;;;;;2.68;55.47;97302.25;8284654;28;20586;-85
2020/12/03 03:06:01;;;;;;;40.37;33.83;;;;;;;2.63;55.58;97322.00;8283056;28;20229;-85
2020/12/03 03:10:05;;;;;;;39.83;33.50;;;;;;;2.52;55.32;97309.44;8263190;28;20230;-85
2020/12/03 03:14:07;;;;;;;37.90;32.67;;;;;;;2.85;55.41;97314.66;8282680;28;20226;-85
2020/12/03 03:18:09;;;;;;;40.17;32.27;;;;;;;2.70;55.25;97311.59;8285391;28;20256;-84
2020/12/03 03:22:11;;;;;;;38.00;32.23;;;;;;;2.77;54.92;97308.88;8299742;28;20304;-85
2020/12/03 03:26:15;;;;;;;39.40;31.17;;;;;;;2.79;54.98;97304.56;8272092;28;20241;-85
2020/12/03 03:30:18;;;;;;;39.03;32.23;;;;;;;2.85;55.28;97294.19;8287846;28;20544;-85
2020/12/03 03:34:21;;;;;;;39.00;32.47;;;;;;;2.78;55.15;97301.19;8286978;28;20249;-85
2020/12/03 03:38:23;;;;;;;37.53;32.07;;;;;;;2.86;55.62;97288.22;8296463;28;20657;-85
2020/12/03 03:42:26;;;;;;;39.77;32.73;;;;;;;2.58;54.71;97276.06;8279028;28;20224;-85
2020/12/03 03:46:28;;;;;;;39.83;32.33;;;;;;;2.72;55.89;97273.19;8267845;28;20241;-85
2020/12/03 03:50:30;;;;;;;40.27;33.17;;;;;;;2.87;55.46;97283.03;8290753;28;20241;-85
2020/12/03 03:54:32;;;;;;;38.17;31.43;;;;;;;2.87;55.76;97274.53;8298237;28;20664;-85
2020/12/03 03:58:35;;;;;;;40.60;32.20;;;;;;;2.90;55.33;97262.50;8287188;28;20214;-84
2020/12/03 04:02:38;;;;;;;40.03;32.87;;;;;;;2.92;55.83;97270.97;8286064;28;20233;-85
2020/12/03 04:06:41;;;;;;;39.77;33.13;;;;;;;2.97;55.32;97259.78;8281934;28;20545;-85
2020/12/03 04:10:44;;;;;;;39.23;32.67;;;;;;;2.95;55.32;97275.16;8278628;28;20197;-84
2020/12/03 04:14:48;;;;;;;38.77;32.93;;;;;;;2.84;56.43;97255.00;8279096;28;20226;-84
2020/12/03 04:18:50;;;;;;;40.00;32.67;;;;;;;2.75;56.78;97250.09;8285206;28;20217;-84
2020/12/03 04:22:52;;;;;;;40.97;33.67;;;;;;;2.93;55.80;97251.34;8289552;28;20241;-85
2020/12/03 04:26:55;;;;;;;40.17;33.73;;;;;;;3.01;56.17;97266.50;8266517;28;20537;-84
2020/12/03 04:30:59;;;;;;;37.27;31.43;;;;;;;2.86;55.35;97255.78;8298130;28;20228;-84
2020/12/03 04:35:01;;;;;;;41.63;33.07;;;;;;;2.88;55.71;97269.38;8297840;28;20229;-84
2020/12/03 04:39:04;;;;;;;39.20;32.27;;;;;;;3.01;56.05;97267.38;8298226;28;20212;-85
2020/12/03 04:43:09;;;;;;;38.83;32.73;;;;;;;3.06;56.02;97262.94;8278703;28;20225;-85
2020/12/03 04:47:30;;;;;;;47.17;33.10;;;;;;;2.89;55.54;97245.50;8292115;28;20229;-85
2020/12/03 04:51:55;;;;;;;38.87;32.87;;;;;;;2.56;56.56;97234.38;8284430;28;20225;-85
2020/12/03 04:56:00;;;;;;;40.03;33.23;;;;;;;2.79;56.61;97248.31;8277725;28;20212;-85
2020/12/03 05:00:06;;;;;;;38.93;32.07;;;;;;;2.86;55.66;97244.75;8283196;28;20205;-84
2020/12/03 05:04:11;;;;;;;46.23;33.83;;;;;;;2.89;56.13;97249.75;8283679;28;20320;-85
2020/12/03 05:08:22;;;;;;;39.83;31.43;;;;;;;2.96;55.62;97251.28;8281864;28;20216;-84
2020/12/03 05:12:28;;;;;;;38.20;31.70;;;;;;;3.03;56.13;97241.75;8281183;28;20287;-85
2020/12/03 05:16:35;;;;;;;39.97;31.73;;;;;;;2.82;56.37;97241.41;8267728;28;20649;-84
2020/12/03 05:20:43;;;;;;;38.00;31.27;;;;;;;2.76;56.66;97236.47;8277608;28;20225;-85
2020/12/03 05:24:45;;;;;;;37.97;30.53;;;;;;;2.71;56.97;97235.72;8278783;28;20230;-85
2020/12/03 05:28:53;;;;;;;39.07;31.17;;;;;;;2.73;56.04;97221.19;8275410;28;20555;-84
2020/12/03 05:32:56;;;;;;;39.43;31.27;;;;;;;2.84;55.58;97229.44;8286308;28;20283;-84
2020/12/03 05:37:03;;;;;;;36.93;30.83;;;;;;;2.59;56.22;97205.31;8284688;28;20209;-85
2020/12/03 05:41:06;;;;;;;38.23;30.97;;;;;;;2.67;56.13;97203.44;8276565;28;20224;-84
2020/12/03 05:45:12;;;;;;;38.00;30.83;;;;;;;2.81;56.17;97193.69;8292977;28;20430;-84
2020/12/03 05:49:20;;;;;;;35.37;29.40;;;;;;;2.67;56.27;97185.53;8279083;28;20383;-84
2020/12/03 05:53:27;;;;;;;35.40;29.27;;;;;;;2.92;55.82;97180.63;8280744;28;20345;-83
2020/12/03 05:57:33;;;;;;;33.73;28.10;;;;;;;2.96;55.39;97189.06;8283015;28;20198;-84
2020/12/03 06:01:37;;;;;;;33.77;27.90;;;;;;;2.97;55.90;97193.28;8282185;28;20663;-84
2020/12/03 06:05:51;;;;;;;37.87;29.73;;;;;;;2.99;55.88;97184.72;8274717;28;20288;-85
2020/12/03 06:10:14;;;;;;;37.57;29.63;;;;;;;2.76;55.59;97175.09;8295433;28;20225;-85
2020/12/03 06:14:31;;;;;;;37.47;29.60;;;;;;;2.93;55.49;97172.06;8289549;28;20241;-85
2020/12/03 06:19:01;;;;;;;38.47;29.67;;;;;;;2.85;55.55;97156.91;8279402;28;20670;-85
2020/12/03 06:23:23;;;;;;;37.07;29.23;;;;;;;2.66;56.55;97165.97;8284511;28;20750;-85
2020/12/03 06:27:41;;;;;;;37.63;30.37;;;;;;;2.15;56.66;97144.19;8282622;28;20295;-85
2020/12/03 06:31:58;;;;;;;37.30;29.27;;;;;;;2.59;56.14;97159.31;8274810;28;20284;-85
2020/12/03 06:36:06;;;;;;;40.00;31.70;;;;;;;2.78;56.52;97149.44;8293667;28;20601;-84
2020/12/03 06:40:11;;;;;;;36.20;29.83;;;;;;;2.90;56.12;97154.25;8279374;28;20202;-84
2020/12/03 06:44:20;;;;;;;38.93;29.73;;;;;;;2.96;55.92;97159.22;8282773;28;20312;-84
2020/12/03 06:48:37;;;;;;;36.80;28.63;;;;;;;2.71;55.56;97156.47;8266423;28;20657;-83
2020/12/03 06:52:53;;;;;;;36.30;28.63;;;;;;;2.76;55.38;97159.75;8294252;28;20253;-84
2020/12/03 06:57:32;;;;;;;36.63;28.53;;;;;;;2.97;55.77;97149.81;8288140;28;20564;-84
2020/12/03 07:02:09;;;;;;;40.40;32.17;;;;;;;2.80;55.54;97148.56;8271572;28;20302;-84
2020/12/03 07:06:47;;;;;;;42.90;34.63;;;;;;;2.98;55.32;97148.94;8288884;28;20339;-84
2020/12/03 07:11:15;;;;;;;35.90;26.50;;;;;;;6.00;79.00;97155.31;8278494;28;20331;-93
2020/12/03 07:15:31;;;;;;;30.97;25.73;;;;;;;5.83;54.27;97143.91;8285043;28;20625;-91
2020/12/03 07:20:09;;;;;;;33.27;25.67;;;;;;;6.23;52.96;97147.50;8272720;28;20213;-90
2020/12/03 07:24:15;;;;;;;29.87;24.47;;;;;;;5.67;52.13;97160.78;8172289;29;20296;-88
2020/12/03 07:28:23;;;;;;;35.90;27.43;;;;;;;5.22;49.86;97157.28;8189530;29;20288;-82
2020/12/03 07:32:39;;;;;;;34.13;28.03;;;;;;;4.63;50.96;97171.28;8181442;29;20246;-84
2020/12/03 07:36:46;;;;;;;39.87;28.83;;;;;;;4.18;52.42;97159.06;8272476;28;20231;-86
2020/12/03 07:40:52;;;;;;;38.17;29.53;;;;;;;3.87;51.77;97166.88;8279504;28;20272;-83
2020/12/03 07:44:54;;;;;;;41.77;29.23;;;;;;;3.83;53.13;97160.16;8299438;28;20308;-84
2020/12/03 07:48:57;;;;;;;38.10;30.33;;;;;;;3.58;53.64;97152.34;8268840;28;20210;-83
2020/12/03 07:53:19;;;;;;;39.73;30.43;;;;;;;3.44;53.85;97151.03;8271740;28;20245;-84
2020/12/03 07:57:25;;;;;;;37.37;30.93;;;;;;;3.33;54.00;97151.38;8299590;28;20229;-81
2020/12/03 08:01:36;;;;;;;39.03;31.07;;;;;;;3.13;54.85;97149.34;8288252;28;20228;-84
2020/12/03 08:05:50;;;;;;;38.70;30.43;;;;;;;3.33;54.37;97147.94;8278054;28;20229;-84
2020/12/03 08:09:54;;;;;;;38.43;30.93;;;;;;;3.44;54.53;97147.66;8299285;28;20211;-84
2020/12/03 08:13:57;;;;;;;40.77;31.77;;;;;;;3.01;54.13;97142.03;8288631;28;20241;-84
2020/12/03 08:18:00;;;;;;;40.03;31.53;;;;;;;3.08;55.14;97130.72;8287637;28;20387;-83
2020/12/03 08:22:02;;;;;;;44.23;33.53;;;;;;;3.18;55.03;97135.59;8299050;28;20604;-84
2020/12/03 08:26:05;;;;;;;41.93;32.60;;;;;;;3.12;54.72;97136.59;8294731;28;20633;-84
2020/12/03 08:30:38;;;;;;;41.93;32.30;;;;;;;2.24;57.45;97128.66;8266550;28;20582;-84
2020/12/03 08:34:42;;;;;;;41.23;32.60;;;;;;;2.35;57.27;97118.19;8285233;28;20354;-82
2020/12/03 08:38:47;;;;;;;40.97;31.83;;;;;;;2.78;56.47;97124.75;8295459;28;20339;-81
2020/12/03 08:42:50;;;;;;;41.50;32.50;;;;;;;3.06;56.76;97124.81;8296761;28;20225;-81
2020/12/03 08:46:54;;;;;;;44.63;32.80;;;;;;;2.49;56.87;97117.81;8295925;28;20542;-78
2020/12/03 08:50:59;;;;;;;41.97;32.43;;;;;;;2.89;56.76;97109.09;8295759;28;20233;-80
2020/12/03 08:55:05;;;;;;;44.30;31.97;;;;;;;2.25;58.31;97102.25;8287847;28;20232;-80
2020/12/03 08:59:09;;;;;;;41.03;31.63;;;;;;;2.53;57.95;97115.16;8288815;28;20349;-81
2020/12/03 09:03:13;;;;;;;42.53;31.87;;;;;;;2.58;58.00;97104.81;8278675;28;20276;-81
2020/12/03 09:07:17;;;;;;;43.63;32.77;;;;;;;2.81;57.17;97088.00;8286656;28;20228;-76
2020/12/03 09:11:20;;;;;;;40.27;31.47;;;;;;;2.85;57.60;97097.28;8281819;28;20715;-76
2020/12/03 09:15:23;;;;;;;42.20;32.53;;;;;;;2.64;57.55;97079.06;8294597;28;20265;-75
2020/12/03 09:19:25;;;;;;;40.83;32.07;;;;;;;2.73;57.49;97083.94;8294606;28;20212;-76
2020/12/03 09:23:31;;;;;;;40.77;31.93;;;;;;;2.50;58.76;97063.28;8264608;28;20802;-76
2020/12/03 09:27:37;;;;;;;41.87;31.87;;;;;;;2.30;58.72;97059.53;8263439;28;20222;-77
2020/12/03 09:31:38;;;;;;;42.40;33.20;;;;;;;2.27;59.18;97072.38;8263820;28;20312;-76
2020/12/03 09:35:41;;;;;;;46.07;34.10;;;;;;;2.08;59.64;97048.19;8263234;28;20225;-76
2020/12/03 09:39:44;;;;;;;42.70;32.90;;;;;;;2.14;59.98;97051.41;8264684;28;20225;-75
2020/12/03 09:43:47;;;;;;;43.67;33.20;;;;;;;1.99;59.96;97049.25;8262591;28;20237;-76
2020/12/03 09:47:50;;;;;;;45.60;33.60;;;;;;;1.47;61.85;97040.28;8284374;28;20217;-89
2020/12/03 09:51:54;;;;;;;43.87;33.23;;;;;;;1.69;61.62;97027.84;8295167;28;20229;-90
2020/12/03 09:56:02;;;;;;;46.80;32.77;;;;;;;1.48;62.16;97016.44;8298769;28;20257;-93
2020/12/03 10:00:07;;;;;;;46.47;32.53;;;;;;;1.56;61.62;97019.63;8277871;28;20205;-87
2020/12/03 10:04:44;;;;;;;45.53;33.67;;;;;;;1.93;60.19;96988.13;8289877;28;20309;-89
2020/12/03 10:09:09;;;;;;;42.57;32.43;;;;;;;2.00;60.19;96991.34;8311076;28;20421;-93
2020/12/03 10:13:31;;;;;;;43.90;32.17;;;;;;;2.15;66.81;96978.16;8300926;28;20300;-94
2020/12/03 10:17:45;;;;;;;44.57;33.20;;;;;;;1.89;60.53;96974.59;8302431;28;20281;-90
2020/12/03 10:26:34;;;;;;;44.47;32.83;;;;;;;1.61;61.75;96966.78;8325226;28;20224;-91
2020/12/03 10:30:47;;;;;;;42.90;32.40;;;;;;;1.53;61.38;96951.66;8321384;28;20288;-93
2020/12/03 10:34:52;;;;;;;49.60;34.90;;;;;;;1.82;60.56;96944.97;8303575;28;20230;-93
2020/12/03 10:39:00;;;;;;;46.33;35.07;;;;;;;1.79;61.49;96945.06;8299107;28;20218;-91
2020/12/03 10:43:06;;;;;;;47.28;38.85;;;;;;;2.19;59.94;96944.00;8307416;28;20463;-77
2020/12/03 10:47:13;;;;;;;51.03;36.80;;;;;;;1.94;60.84;96920.81;8303796;28;20221;-76
2020/12/03 10:51:17;;;;;;;50.07;36.37;;;;;;;1.49;62.27;96919.44;8302648;28;20298;-75
2020/12/03 10:55:20;;;;;;;50.33;35.60;;;;;;;1.65;61.94;96916.50;8286339;28;20597;-77
2020/12/03 10:59:37;;;;;;;47.70;34.97;;;;;;;1.63;61.77;96911.41;8302611;28;20600;-76
2020/12/03 11:03:42;;;;;;;45.43;34.23;;;;;;;1.71;61.36;96914.63;8309173;28;20878;-91
2020/12/03 11:07:53;;;;;;;46.70;34.73;;;;;;;1.72;61.04;96900.97;8323412;28;20229;-93
2020/12/03 11:11:59;;;;;;;49.90;36.43;;;;;;;1.80;60.96;96900.78;8312241;28;20213;-93
2020/12/03 11:16:12;;;;;;;45.80;34.60;;;;;;;1.89;61.33;96884.38;8308493;28;20237;-93
2020/12/03 11:20:43;;;;;;;49.05;39.95;;;;;;;2.39;59.90;96882.13;8304826;28;20445;-96
2020/12/03 11:24:50;;;;;;;49.00;36.20;;;;;;;2.14;60.25;96882.81;8320836;28;20274;-89
2020/12/03 11:28:54;;;;;;;48.93;35.43;;;;;;;1.75;61.96;96874.53;8311911;28;20284;-87
2020/12/03 11:33:00;;;;;;;48.20;35.80;;;;;;;2.09;61.03;96876.16;8295563;28;20351;-88
2020/12/03 11:37:31;;;;;;;49.47;36.40;;;;;;;1.84;61.66;96881.13;8297945;28;20356;-91
2020/12/03 11:41:56;;;;;;;48.57;35.70;;;;;;;2.28;60.47;96871.38;8289808;28;20210;-89
2020/12/03 11:46:43;;;;;;;49.30;35.57;;;;;;;1.93;61.63;96878.31;8311012;28;20270;-86
2020/12/03 11:55:38;;;;;;;49.55;41.15;;;;;;;2.32;60.09;96866.16;8302006;28;20549;-93
2020/12/03 11:59:55;;;;;;;46.93;36.60;;;;;;;2.17;61.08;96847.84;8308240;28;20264;-94
2020/12/03 12:03:57;;;;;;;49.33;36.10;;;;;;;2.03;60.57;96832.94;8287813;28;20230;-88
2020/12/03 12:08:35;;;;;;;49.43;35.57;;;;;;;2.10;60.68;96829.31;8291328;28;20225;-90
2020/12/03 12:12:48;;;;;;;50.47;36.70;;;;;;;2.45;60.16;96827.44;8289438;28;20222;-89
2020/12/03 12:16:52;;;;;;;53.60;37.77;;;;;;;2.02;61.78;96832.09;8297129;28;20255;-88
2020/12/03 12:21:00;;;;;;;49.00;37.23;;;;;;;2.40;60.50;96812.25;8296959;28;20324;-90
2020/12/03 12:25:09;;;;;;;50.87;35.60;;;;;;;2.54;60.33;96815.22;8295086;28;20297;-93
2020/12/03 12:29:21;;;;;;;50.83;36.17;;;;;;;2.43;60.53;96819.81;8289831;28;20312;-91
2020/12/03 12:33:24;;;;;;;50.97;37.37;;;;;;;2.27;61.01;96813.50;8318464;28;20233;-92
2020/12/03 12:37:33;;;;;;;49.37;36.30;;;;;;;2.25;61.20;96808.44;8294460;28;20221;-93
2020/12/03 12:41:38;;;;;;;50.40;36.37;;;;;;;2.27;61.08;96801.56;8300170;28;20265;-91
2020/12/03 12:45:57;;;;;;;51.77;37.97;;;;;;;2.40;60.81;96796.06;8310610;28;20319;-92
2020/12/03 12:50:01;;;;;;;52.63;37.53;;;;;;;2.49;60.48;96794.06;8305212;28;20228;-94
2020/12/03 12:54:10;;;;;;;55.07;37.27;;;;;;;2.42;61.00;96782.38;8312192;28;20347;-95
2020/12/03 12:58:22;;;;;;;51.23;37.70;;;;;;;2.67;59.85;96794.41;8300552;28;20198;-95
2020/12/03 13:02:26;;;;;;;53.10;35.90;;;;;;;2.71;60.32;96788.31;8292194;28;20248;-91
2020/12/03 13:06:29;;;;;;;50.07;37.90;;;;;;;2.51;60.95;96787.22;8281628;28;20632;-89
2020/12/03 13:10:34;;;;;;;52.47;37.23;;;;;;;2.73;60.14;96771.19;8302316;28;20213;-96
2020/12/03 13:14:37;;;;;;;50.00;37.40;;;;;;;2.64;60.41;96779.97;8296663;28;20296;-95
2020/12/03 13:18:49;;;;;;;55.20;38.13;;;;;;;2.31;61.73;96746.09;8324060;28;20193;-92
2020/12/03 13:22:52;;;;;;;53.47;38.30;;;;;;;2.11;62.32;96739.91;8304625;28;20245;-92
2020/12/03 13:26:55;;;;;;;52.87;38.60;;;;;;;2.89;60.25;96738.28;8288527;28;20752;-76
2020/12/03 13:30:56;;;;;;;50.97;36.97;;;;;;;2.40;60.76;96727.09;8286700;28;20201;-77
2020/12/03 13:34:59;;;;;;;51.23;38.50;;;;;;;1.66;63.22;96717.38;8290408;28;20281;-78
2020/12/03 13:39:02;;;;;;;51.37;37.77;;;;;;;2.02;63.22;96713.78;8286142;28;20318;-77
2020/12/03 13:43:04;;;;;;;56.77;40.03;;;;;;;2.21;62.62;96702.13;8278524;28;20302;-77
2020/12/03 13:47:06;;;;;;;56.67;39.77;;;;;;;2.44;61.59;96711.63;8283313;28;20586;-76
2020/12/03 13:51:09;;;;;;;56.67;39.37;;;;;;;2.29;61.69;96707.00;8267260;28;20226;-76
2020/12/03 13:55:11;;;;;;;53.07;39.43;;;;;;;2.34;62.11;96712.78;8264862;28;20229;-79
2020/12/03 13:59:14;;;;;;;50.23;35.50;;;;;;;2.44;61.91;96716.72;8291518;28;20254;-77
2020/12/03 14:03:16;;;;;;;54.40;38.43;;;;;;;2.76;61.57;96709.75;8278824;28;20518;-76
2020/12/03 14:07:19;;;;;;;50.20;37.63;;;;;;;2.60;61.52;96706.00;8271603;28;20274;-78
2020/12/03 14:11:21;;;;;;;52.63;38.73;;;;;;;2.60;61.55;96699.16;8294884;28;20250;-76
2020/12/03 14:15:23;;;;;;;51.43;38.77;;;;;;;2.42;61.82;96692.09;8294627;28;20221;-75
2020/12/03 14:19:25;;;;;;;53.60;38.43;;;;;;;2.30;62.20;96678.84;8294583;28;20209;-76
2020/12/03 14:23:28;;;;;;;52.70;37.83;;;;;;;2.29;62.14;96678.91;8293290;28;20327;-77
2020/12/03 14:27:30;;;;;;;50.77;37.13;;;;;;;2.21;62.71;96668.94;8295083;28;20507;-75
2020/12/03 14:31:32;;;;;;;50.97;37.60;;;;;;;2.30;62.26;96657.56;8290514;28;20206;-76
2020/12/03 14:35:34;;;;;;;51.07;37.83;;;;;;;2.25;62.21;96654.34;8292088;28;20696;-77
2020/12/03 14:39:37;;;;;;;50.27;37.20;;;;;;;2.29;62.26;96653.34;8293491;28;20346;-76
2020/12/03 14:43:38;;;;;;;47.97;35.80;;;;;;;2.27;62.69;96634.69;8278421;28;20233;-76
2020/12/03 14:47:41;;;;;;;50.63;38.23;;;;;;;2.10;63.07;96633.50;8294531;28;20267;-76
2020/12/03 14:51:49;;;;;;;50.67;37.30;;;;;;;2.42;62.25;96626.50;8294353;28;20232;-78
2020/12/03 14:55:55;;;;;;;49.60;36.83;;;;;;;2.40;61.25;96610.41;8294248;28;20232;-77
2020/12/03 14:59:57;;;;;;;53.47;37.73;;;;;;;2.38;62.20;96612.19;8289095;28;20217;-76
2020/12/03 15:03:58;;;;;;;47.93;36.53;;;;;;;1.96;63.11;96607.53;8288860;28;20225;-76
2020/12/03 15:08:01;;;;;;;50.03;34.40;;;;;;;1.70;63.82;96588.78;8292102;28;20229;-76
2020/12/03 15:12:07;;;;;;;51.70;35.87;;;;;;;2.00;63.26;96606.59;8293934;28;20275;-76
2020/12/03 15:16:09;;;;;;;45.10;33.87;;;;;;;1.93;63.52;96594.91;8282656;28;20266;-76
2020/12/03 15:20:11;;;;;;;48.50;36.07;;;;;;;1.80;63.53;96574.03;8300455;28;20209;-76
2020/12/03 15:24:13;;;;;;;50.57;36.07;;;;;;;1.73;63.63;96575.94;8300455;28;20228;-76
2020/12/03 15:28:16;;;;;;;49.70;36.87;;;;;;;2.02;63.14;96571.63;8300360;28;20509;-76
2020/12/03 15:32:19;;;;;;;47.57;34.50;;;;;;;2.04;62.69;96574.13;8299659;28;20638;-76
2020/12/03 15:36:20;;;;;;;44.77;34.43;;;;;;;2.18;63.01;96563.47;8299742;28;20267;-76
2020/12/03 15:40:22;;;;;;;46.87;34.73;;;;;;;2.14;62.63;96552.50;8299976;28;20603;-76
2020/12/03 15:44:25;;;;;;;45.57;33.57;;;;;;;2.14;62.81;96543.13;8298913;28;20225;-76
2020/12/03 15:48:29;;;;;;;50.63;35.50;;;;;;;1.83;63.67;96538.19;8296110;28;20218;-76
2020/12/03 15:52:31;;;;;;;46.77;34.27;;;;;;;1.71;64.21;96536.88;8297731;28;20287;-76
2020/12/03 15:56:33;;;;;;;49.30;35.03;;;;;;;1.87;63.08;96538.94;8299617;28;20287;-76
2020/12/03 16:00:36;;;;;;;49.20;34.77;;;;;;;2.14;62.68;96530.34;8299438;28;20644;-76
2020/12/03 16:04:39;;;;;;;47.97;33.27;;;;;;;2.08;62.73;96516.97;8287936;28;20248;-76
2020/12/03 16:08:41;;;;;;;48.33;33.70;;;;;;;1.97;62.94;96524.97;8266445;28;20229;-76
2020/12/03 16:12:42;;;;;;;46.47;32.77;;;;;;;2.25;62.29;96517.22;8266218;28;20542;-78
2020/12/03 16:16:46;;;;;;;44.13;32.47;;;;;;;2.18;62.29;96520.03;8293307;28;20521;-76
2020/12/03 16:20:48;;;;;;;44.43;32.73;;;;;;;2.24;61.89;96518.09;8298079;28;20201;-77
2020/12/03 16:24:53;;;;;;;45.43;32.37;;;;;;;2.10;62.99;96507.53;8299389;28;20672;-77
2020/12/03 16:28:55;;;;;;;43.30;31.00;;;;;;;2.13;62.32;96507.41;8297699;28;20220;-75
2020/12/03 16:32:58;;;;;;;39.03;31.00;;;;;;;2.09;62.59;96501.56;8287849;28;20696;-75
2020/12/03 16:37:01;;;;;;;38.97;30.40;;;;;;;2.21;62.47;96495.22;8298651;28;20251;-77
2020/12/03 16:41:06;;;;;;;42.73;29.93;;;;;;;2.30;62.06;96489.81;8292951;28;20526;-78
2020/12/03 16:45:07;;;;;;;44.43;31.13;;;;;;;2.07;62.43;96484.63;8277864;28;20217;-76
2020/12/03 16:49:14;;;;;;;40.03;30.63;;;;;;;2.32;61.73;96472.69;8279839;28;20213;-80
2020/12/03 16:53:24;;;;;;;41.63;31.57;;;;;;;2.02;62.60;96458.41;8282073;28;20226;-96
2020/12/03 16:57:27;;;;;;;42.07;31.83;;;;;;;2.11;62.88;96442.78;8283399;28;20232;-91
2020/12/03 17:01:32;;;;;;;38.13;29.80;;;;;;;2.25;62.08;96447.44;8282849;28;20205;-93
2020/12/03 17:05:37;;;;;;;39.27;30.80;;;;;;;2.35;62.63;96444.47;8286322;28;20341;-94
2020/12/03 17:09:40;;;;;;;41.17;30.70;;;;;;;2.39;62.12;96434.16;8284960;28;20234;-92
2020/12/03 17:13:52;;;;;;;;;;;;;;;;;;;;;
2020/12/03 17:17:55;;;;;;;38.60;31.73;;;;;;;2.65;61.43;96422.97;8283160;28;20214;-92
2020/12/03 17:22:02;;;;;;;40.80;32.70;;;;;;;2.32;62.48;96441.19;8291946;28;20194;-92
2020/12/03 17:26:18;;;;;;;42.40;31.00;;;;;;;2.17;63.08;96423.84;8295572;28;20198;-91
2020/12/03 17:34:51;;;;;;;43.50;30.60;;;;;;;2.33;62.74;96419.88;8294962;28;20244;-95
2020/12/03 17:38:57;;;;;;;43.97;32.43;;;;;;;2.29;63.28;96410.66;8332164;28;20197;-86
2020/12/03 17:43:46;;;;;;;41.27;31.80;;;;;;;2.41;62.74;96399.16;8325844;28;20314;-94
2020/12/03 17:48:05;;;;;;;44.63;32.60;;;;;;;2.49;62.81;96376.69;8303184;28;20236;-93
2020/12/03 17:52:11;;;;;;;43.03;32.43;;;;;;;2.39;63.43;96388.16;8270800;28;20316;-87
2020/12/03 17:56:20;;;;;;;41.47;30.83;;;;;;;2.39;63.05;96380.50;8288942;28;20229;-89
2020/12/03 18:00:26;;;;;;;39.77;30.47;;;;;;;2.51;62.84;96385.13;8295072;28;20217;-90
2020/12/03 18:04:29;;;;;;;38.53;30.80;;;;;;;2.51;62.56;96357.88;8299338;28;20247;-90
2020/12/03 18:08:39;;;;;;;36.00;29.70;;;;;;;2.56;62.84;96357.69;8297540;28;20227;-91
2020/12/03 18:12:47;;;;;;;37.27;29.20;;;;;;;2.61;62.54;96354.94;8299557;28;20256;-91
2020/12/03 18:16:50;;;;;;;35.93;28.97;;;;;;;2.70;62.37;96359.72;8300050;28;20613;-90
2020/12/03 18:21:04;;;;;;;38.30;29.13;;;;;;;2.50;62.55;96345.16;8316961;28;20420;-90
2020/12/03 18:25:17;;;;;;;36.63;29.20;;;;;;;2.45;63.00;96339.38;8318421;28;20695;-90
2020/12/03 18:29:22;;;;;;;35.17;27.67;;;;;;;2.58;62.84;96330.34;8318598;28;20229;-94
2020/12/03 18:33:28;;;;;;;36.20;27.73;;;;;;;2.53;62.91;96327.97;8301944;28;20232;-88
2020/12/03 18:37:39;;;;;;;38.93;27.90;;;;;;;2.66;62.38;96319.81;8301800;28;20259;-94
2020/12/03 18:41:59;;;;;;;38.20;28.17;;;;;;;2.49;62.42;96294.91;8300768;28;20192;-94
2020/12/03 18:46:09;;;;;;;34.63;27.30;;;;;;;2.52;63.17;96287.97;8310316;28;20224;-92
2020/12/03 18:50:15;;;;;;;35.10;28.10;;;;;;;2.66;62.78;96277.19;8282517;28;20237;-92
2020/12/03 18:54:18;;;;;;;33.97;26.53;;;;;;;2.63;62.73;96269.66;8288482;28;20768;-90
2020/12/03 18:58:25;;;;;;;32.97;27.20;;;;;;;2.30;63.25;96262.44;8294424;28;20209;-91
2020/12/03 19:02:29;;;;;;;32.00;24.97;;;;;;;2.44;63.21;96264.44;8297192;28;20225;-89
2020/12/03 19:11:05;;;;;;;30.60;27.30;;;;;;;3.05;60.66;96262.88;8306713;28;20531;-93
2020/12/03 19:15:10;;;;;;;29.57;24.17;;;;;;;2.47;62.87;96248.97;8320216;28;20236;-95
2020/12/03 19:24:06;;;;;;;30.00;24.30;;;;;;;2.26;62.13;96237.88;8460413;27;20547;-93
2020/12/03 19:28:23;;;;;;;;;;;;;;;;;;;;;
2020/12/03 19:32:30;;;;;;;30.50;22.87;;;;;;;2.31;62.13;96251.31;8405992;28;20253;-88
2020/12/03 19:36:35;;;;;;;29.20;23.57;;;;;;;2.22;62.22;96244.00;8383951;28;20196;-88